createdAt,value
2018-08-17T00:02:27.924Z,10.97
2018-08-17T00:04:57.372Z,11.27
2018-08-17T00:07:27.367Z,11.80
2018-08-17T00:09:56.325Z,12.73
2018-08-17T00:12:25.189Z,12.60
2018-08-17T00:14:54.126Z,14.40
2018-08-17T00:17:23.573Z,10.27
2018-08-17T00:19:52.713Z,10.67
2018-08-17T00:22:22.548Z,13.20
2018-08-17T00:24:51.981Z,11.90
2018-08-17T00:27:26.076Z,13.63
2018-08-17T00:30:00.033Z,11.10
2018-08-17T00:32:29.817Z,9.70
2018-08-17T00:35:02.957Z,10.93
2018-08-17T00:37:36.048Z,11.20
2018-08-17T00:40:06.892Z,10.83
2018-08-17T00:42:36.194Z,11.30
2018-08-17T00:45:06.485Z,11.30
2018-08-17T00:47:38.060Z,9.80
2018-08-17T00:50:07.657Z,10.87
2018-08-17T00:52:37.754Z,10.43
2018-08-17T00:55:32.009Z,9.60
2018-08-17T00:58:40.894Z,9.73
2018-08-17T01:01:10.096Z,11.77
2018-08-17T01:03:39.547Z,9.77
2018-08-17T01:06:08.806Z,10.03
2018-08-17T01:08:39.269Z,10.83
2018-08-17T01:11:08.473Z,9.90
2018-08-17T01:13:37.738Z,9.77
2018-08-17T01:16:15.470Z,9.70
2018-08-17T01:18:52.918Z,10.83
2018-08-17T01:21:31.377Z,11.63
2018-08-17T01:27:05.189Z,10.03
2018-08-17T01:29:55.031Z,10.37
2018-08-17T01:32:25.569Z,10.27
2018-08-17T01:35:07.310Z,10.80
2018-08-17T01:37:42.111Z,10.60
2018-08-17T01:42:57.754Z,10.40
2018-08-17T01:45:32.699Z,10.40
2018-08-17T01:48:01.832Z,10.10
2018-08-17T01:50:31.267Z,9.50
2018-08-17T01:53:00.477Z,9.17
2018-08-17T01:55:29.120Z,11.40
2018-08-17T01:57:58.112Z,10.13
2018-08-17T02:00:26.932Z,9.10
2018-08-17T02:02:55.779Z,10.00
2018-08-17T02:05:24.486Z,9.53
2018-08-17T02:07:53.181Z,10.63
2018-08-17T02:10:22.303Z,9.93
2018-08-17T02:12:51.911Z,9.30
2018-08-17T02:15:20.682Z,9.50
2018-08-17T02:17:49.429Z,10.40
2018-08-17T02:20:18.526Z,9.90
2018-08-17T02:22:47.299Z,10.00
2018-08-17T02:25:16.439Z,10.40
2018-08-17T02:27:45.216Z,11.00
2018-08-17T02:30:14.541Z,12.73
2018-08-17T02:32:43.188Z,10.33
2018-08-17T02:35:12.269Z,9.80
2018-08-17T02:37:42.527Z,12.40
2018-08-17T02:40:11.424Z,10.60
2018-08-17T02:42:40.305Z,9.53
2018-08-17T02:45:09.271Z,11.00
2018-08-17T02:47:38.313Z,10.90
2018-08-17T02:50:07.289Z,9.70
2018-08-17T02:52:36.115Z,11.50
2018-08-17T02:55:04.977Z,11.50
2018-08-17T02:57:33.749Z,10.13
2018-08-17T03:00:02.439Z,10.30
2018-08-17T03:02:31.202Z,10.33
2018-08-17T03:05:00.066Z,10.30
2018-08-17T03:07:29.029Z,12.17
2018-08-17T03:09:57.899Z,10.40
2018-08-17T03:12:26.997Z,9.80
2018-08-17T03:14:56.195Z,11.43
2018-08-17T03:17:25.161Z,11.17
2018-08-17T03:19:54.509Z,11.20
2018-08-17T03:22:23.354Z,12.93
2018-08-17T03:24:52.207Z,9.87
2018-08-17T03:27:21.051Z,11.37
2018-08-17T03:29:50.786Z,10.10
2018-08-17T03:32:19.736Z,10.50
2018-08-17T03:34:48.743Z,11.20
2018-08-17T03:37:17.811Z,10.53
2018-08-17T03:39:46.864Z,10.50
2018-08-17T03:42:15.865Z,11.10
2018-08-17T03:44:44.739Z,12.53
2018-08-17T03:47:13.561Z,10.57
2018-08-17T03:49:42.118Z,11.20
2018-08-17T03:52:10.781Z,10.33
2018-08-17T03:54:40.151Z,10.83
2018-08-17T03:57:08.770Z,10.57
2018-08-17T03:59:37.736Z,10.40
2018-08-17T04:02:07.023Z,11.10
2018-08-17T04:04:35.854Z,12.67
2018-08-17T04:07:05.768Z,12.70
2018-08-17T04:09:34.993Z,11.20
2018-08-17T04:12:03.836Z,10.43
2018-08-17T04:14:32.668Z,10.80
2018-08-17T04:17:02.020Z,11.60
2018-08-17T04:19:30.868Z,10.60
2018-08-17T04:21:59.962Z,10.23
2018-08-17T04:24:28.823Z,12.47
2018-08-17T04:26:57.596Z,11.30
2018-08-17T04:29:26.827Z,11.43
2018-08-17T04:31:55.734Z,11.27
2018-08-17T04:34:24.873Z,11.33
2018-08-17T04:36:53.792Z,11.00
2018-08-17T04:39:22.486Z,10.80
2018-08-17T04:41:51.137Z,11.53
2018-08-17T04:44:19.706Z,10.70
2018-08-17T04:46:48.617Z,11.67
2018-08-17T04:49:17.309Z,10.73
2018-08-17T04:51:45.846Z,12.70
2018-08-17T04:54:14.717Z,11.67
2018-08-17T04:56:43.593Z,9.90
2018-08-17T04:59:12.608Z,10.23
2018-08-17T05:01:41.418Z,10.83
2018-08-17T05:04:10.388Z,11.43
2018-08-17T05:06:45.670Z,13.17
2018-08-17T05:09:14.567Z,10.70
2018-08-17T05:11:43.420Z,14.95
2018-08-17T05:14:12.484Z,11.60
2018-08-17T05:16:41.882Z,11.43
2018-08-17T05:19:12.287Z,14.20
2018-08-17T05:21:41.877Z,11.27
2018-08-17T05:24:11.018Z,13.63
2018-08-17T05:26:40.273Z,12.10
2018-08-17T05:29:09.319Z,11.83
2018-08-17T05:31:39.413Z,11.50
2018-08-17T05:34:08.068Z,11.80
2018-08-17T05:36:36.898Z,14.93
2018-08-17T05:39:06.981Z,10.77
2018-08-17T05:41:35.770Z,11.57
2018-08-17T05:44:04.697Z,11.37
2018-08-17T05:46:33.590Z,11.07
2018-08-17T05:49:02.997Z,11.53
2018-08-17T05:51:32.199Z,12.53
2018-08-17T05:54:05.910Z,12.30
2018-08-17T05:56:35.532Z,13.13
2018-08-17T05:59:05.783Z,14.50
2018-08-17T06:01:34.729Z,13.87
2018-08-17T06:04:03.717Z,17.70
2018-08-17T06:06:32.681Z,15.90
2018-08-17T06:09:01.520Z,20.10
2018-08-17T06:11:30.403Z,22.40
2018-08-17T06:13:59.321Z,34.17
2018-08-17T06:16:28.270Z,41.73
2018-08-17T06:18:57.338Z,51.07
2018-08-17T06:21:26.407Z,40.73
2018-08-17T06:23:55.490Z,42.60
2018-08-17T06:26:24.469Z,34.37
2018-08-17T06:28:53.422Z,28.07
2018-08-17T06:31:22.222Z,28.40
2018-08-17T06:33:51.506Z,28.57
2018-08-17T06:36:20.464Z,24.17
2018-08-17T06:38:49.364Z,24.17
2018-08-17T06:41:18.508Z,28.47
2018-08-17T06:43:47.212Z,28.37
2018-08-17T06:46:17.098Z,22.83
2018-08-17T06:48:46.260Z,20.40
2018-08-17T06:51:16.412Z,21.83
2018-08-17T06:53:45.266Z,17.43
2018-08-17T06:56:14.103Z,12.53
2018-08-17T06:58:43.205Z,9.57
2018-08-17T07:01:12.260Z,9.63
2018-08-17T07:03:41.090Z,13.70
2018-08-17T07:06:09.676Z,9.93
2018-08-17T07:08:38.851Z,13.87
2018-08-17T07:11:07.762Z,10.83
2018-08-17T07:13:36.811Z,12.17
2018-08-17T07:16:09.580Z,10.50
2018-08-17T07:18:38.814Z,10.23
2018-08-17T07:21:09.029Z,12.33
2018-08-17T07:23:37.920Z,11.30
2018-08-17T07:26:10.082Z,10.20
2018-08-17T07:28:38.978Z,10.50
2018-08-17T07:31:08.005Z,12.43
2018-08-17T07:33:37.006Z,9.60
2018-08-17T07:36:05.782Z,14.30
2018-08-17T07:38:34.852Z,10.27
2018-08-17T07:41:04.147Z,11.00
2018-08-17T07:43:36.706Z,10.73
2018-08-17T07:46:10.969Z,11.53
2018-08-17T07:48:41.389Z,14.40
2018-08-17T07:51:10.973Z,9.60
2018-08-17T07:53:40.114Z,26.13
2018-08-17T07:56:09.974Z,9.87
2018-08-17T07:58:39.052Z,11.90
2018-08-17T08:01:08.634Z,15.40
2018-08-17T08:03:38.095Z,11.00
2018-08-17T08:06:11.299Z,11.40
2018-08-17T08:08:52.993Z,12.23
2018-08-17T08:11:22.771Z,17.50
2018-08-17T08:13:52.164Z,18.20
2018-08-17T08:19:14.097Z,11.93
2018-08-17T08:21:46.733Z,13.47
2018-08-17T08:24:16.060Z,14.73
2018-08-17T08:26:45.515Z,13.90
2018-08-17T08:29:18.216Z,13.33
2018-08-17T08:31:47.149Z,20.03
2018-08-17T08:34:16.302Z,11.00
2018-08-17T08:36:45.468Z,16.73
2018-08-17T08:39:14.968Z,12.13
2018-08-17T08:41:44.172Z,14.03
2018-08-17T08:44:13.281Z,21.23
2018-08-17T08:46:42.533Z,17.53
2018-08-17T08:49:13.235Z,12.53
2018-08-17T08:51:47.098Z,14.87
2018-08-17T08:54:17.707Z,12.03
2018-08-17T08:56:46.358Z,11.53
2018-08-17T08:59:15.219Z,12.30
2018-08-17T09:01:43.876Z,10.05
2018-08-17T09:04:13.221Z,13.77
2018-08-17T09:06:42.455Z,14.67
2018-08-17T09:09:11.763Z,10.07
2018-08-17T09:11:40.437Z,12.17
2018-08-17T09:14:09.400Z,11.10
2018-08-17T09:16:38.225Z,14.63
2018-08-17T11:08:46.172Z,13.00
2018-08-17T11:11:15.852Z,14.93
2018-08-17T11:13:44.525Z,13.10
2018-08-17T11:16:16.396Z,11.87
2018-08-17T11:18:45.566Z,11.77
2018-08-17T11:21:14.614Z,11.53
2018-08-17T11:23:43.587Z,11.50
2018-08-17T11:26:12.794Z,12.93
2018-08-17T11:28:42.007Z,10.10
2018-08-17T11:31:11.148Z,10.20
2018-08-17T11:33:40.061Z,10.43
2018-08-17T11:36:08.788Z,10.77
2018-08-17T11:38:37.520Z,12.60
2018-08-17T11:41:10.002Z,10.38
2018-08-17T11:43:39.477Z,9.77
2018-08-17T11:46:09.160Z,13.48
2018-08-17T11:48:38.395Z,13.33
2018-08-17T11:51:07.233Z,10.95
2018-08-17T11:53:35.927Z,11.40
2018-08-17T11:56:04.592Z,11.55
2018-08-17T11:58:33.162Z,12.50
2018-08-17T12:01:05.114Z,12.30
2018-08-17T12:03:34.125Z,11.73
2018-08-17T12:06:02.752Z,11.03
2018-08-17T12:08:31.479Z,10.80
2018-08-17T12:11:07.183Z,16.73
2018-08-17T12:13:39.953Z,9.30
2018-08-17T12:16:11.745Z,13.73
2018-08-17T12:18:40.565Z,11.40
2018-08-17T12:21:09.360Z,14.83
2018-08-17T12:23:38.168Z,11.40
2018-08-17T12:26:07.332Z,12.30
2018-08-17T12:28:36.319Z,11.73
2018-08-17T12:31:05.072Z,12.10
2018-08-17T12:33:33.709Z,13.38
2018-08-17T12:36:02.513Z,10.87
2018-08-17T12:38:31.232Z,10.30
2018-08-17T12:41:01.246Z,11.07
2018-08-17T12:43:34.424Z,10.55
2018-08-17T12:46:03.119Z,14.87
2018-08-17T12:48:31.899Z,13.20
2018-08-17T12:51:04.292Z,11.30
2018-08-17T12:53:33.169Z,11.87
2018-08-17T12:56:02.127Z,10.70
2018-08-17T12:58:31.220Z,11.30
2018-08-17T13:00:59.967Z,11.80
2018-08-17T13:03:28.945Z,9.93
2018-08-17T13:05:57.801Z,9.53
2018-08-17T13:08:26.503Z,9.77
2018-08-17T13:10:58.823Z,12.50
2018-08-17T13:13:27.581Z,11.17
2018-08-17T13:16:01.802Z,10.60
2018-08-17T13:18:33.244Z,9.70
2018-08-17T13:21:02.167Z,11.67
2018-08-17T13:23:31.305Z,13.30
2018-08-17T13:26:00.104Z,13.20
2018-08-17T13:28:28.774Z,10.23
2018-08-17T13:30:57.602Z,12.77
2018-08-17T13:33:26.657Z,10.23
2018-08-17T13:35:55.273Z,12.15
2018-08-17T13:38:24.067Z,10.97
2018-08-17T13:40:52.761Z,10.53
2018-08-17T13:43:21.442Z,14.67
2018-08-17T13:45:50.021Z,10.03
2018-08-17T13:48:18.971Z,12.05
2018-08-17T13:50:47.744Z,10.73
2018-08-17T13:53:16.696Z,11.20
2018-08-17T13:55:45.719Z,9.80
2018-08-17T13:58:15.312Z,10.50
2018-08-17T14:00:44.388Z,10.23
2018-08-17T14:03:13.191Z,10.17
2018-08-17T14:05:45.885Z,9.87
2018-08-17T14:08:15.076Z,12.00
2018-08-17T14:10:43.754Z,11.00
2018-08-17T14:13:12.440Z,13.00
2018-08-17T14:15:41.164Z,10.80
2018-08-17T14:18:10.719Z,12.60
2018-08-17T14:20:39.752Z,11.77
2018-08-17T14:23:08.324Z,12.00
2018-08-17T14:25:37.279Z,10.67
2018-08-17T14:28:06.240Z,11.27
2018-08-17T14:30:34.976Z,10.67
2018-08-17T14:33:03.864Z,11.43
2018-08-17T14:35:33.781Z,10.87
2018-08-17T14:38:02.789Z,10.20
2018-08-17T14:40:31.728Z,11.63
2018-08-17T14:43:00.775Z,10.00
2018-08-17T14:45:29.573Z,9.70
2018-08-17T14:47:58.783Z,9.47
2018-08-17T14:50:30.834Z,11.13
2018-08-17T14:52:59.787Z,9.43
2018-08-17T14:55:28.689Z,11.60
2018-08-17T14:57:57.586Z,10.50
2018-08-17T15:00:26.487Z,9.93
2018-08-17T15:02:55.665Z,11.70
2018-08-17T15:05:24.496Z,11.57
2018-08-17T15:07:53.473Z,11.47
2018-08-17T15:10:22.346Z,11.00
2018-08-17T15:12:53.796Z,9.68
2018-08-17T15:15:22.728Z,10.57
2018-08-17T15:17:51.762Z,10.60
2018-08-17T15:20:20.949Z,9.67
2018-08-17T15:22:49.667Z,9.80
2018-08-17T15:25:18.755Z,12.37
2018-08-17T15:27:47.655Z,14.83
2018-08-17T15:30:16.480Z,11.50
2018-08-17T15:32:45.505Z,11.93
2018-08-17T15:35:16.521Z,11.87
2018-08-17T15:37:45.576Z,10.50
2018-08-17T15:40:14.605Z,10.80
2018-08-17T15:42:43.508Z,11.77
2018-08-17T15:45:12.435Z,13.10
2018-08-17T15:47:45.293Z,10.70
2018-08-17T15:50:18.478Z,11.20
2018-08-17T15:52:48.470Z,11.83
2018-08-17T15:55:17.958Z,12.13
2018-08-17T15:57:47.542Z,10.80
2018-08-17T16:00:18.842Z,9.67
2018-08-17T16:02:50.969Z,10.97
2018-08-17T16:05:21.084Z,12.00
2018-08-17T16:07:52.293Z,11.23
2018-08-17T16:10:22.927Z,11.07
2018-08-17T16:16:17.334Z,10.03
2018-08-17T16:18:47.636Z,10.40
2018-08-17T16:21:20.326Z,10.35
2018-08-17T16:23:49.520Z,10.60
2018-08-17T16:26:18.572Z,10.30
2018-08-17T16:28:47.569Z,11.03
2018-08-17T16:31:17.075Z,10.35
2018-08-17T16:33:46.186Z,10.80
2018-08-17T16:36:15.441Z,10.10
2018-08-17T16:38:44.771Z,10.30
2018-08-17T16:41:14.026Z,9.27
2018-08-17T16:43:46.299Z,11.05
2018-08-17T16:46:15.678Z,11.47
2018-08-17T16:48:45.186Z,10.63
2018-08-17T16:51:14.319Z,11.30
2018-08-17T16:53:43.470Z,10.57
2018-08-17T16:56:12.887Z,10.00
2018-08-17T16:58:41.838Z,12.47
2018-08-17T17:01:11.623Z,11.07
2018-08-17T17:03:40.857Z,9.33
2018-08-17T17:06:15.639Z,15.47
2018-08-17T17:14:07.064Z,11.20
2018-08-17T17:16:55.764Z,9.95
2018-08-17T17:19:26.473Z,10.60
2018-08-17T17:21:55.361Z,11.35
2018-08-17T17:24:30.277Z,10.10
2018-08-17T17:27:08.338Z,12.73
2018-08-17T17:29:42.483Z,12.30
2018-08-17T17:32:12.030Z,11.87
2018-08-17T17:34:40.983Z,10.30
2018-08-17T17:37:10.156Z,12.07
2018-08-17T17:39:39.173Z,13.57
2018-08-17T17:42:11.736Z,11.28
2018-08-17T17:44:42.201Z,12.40
2018-08-17T17:47:12.592Z,11.67
2018-08-17T17:49:43.058Z,12.80
2018-08-17T17:52:13.583Z,15.10
2018-08-17T17:54:42.857Z,13.33
2018-08-17T17:57:12.068Z,16.37
2018-08-17T17:59:48.165Z,14.87
2018-08-17T18:02:28.778Z,13.27
2018-08-17T18:04:58.427Z,15.90
2018-08-17T18:07:34.036Z,15.90
2018-08-17T18:10:06.791Z,16.20
2018-08-17T18:12:36.112Z,17.10
2018-08-17T18:15:05.325Z,17.33
2018-08-17T18:17:34.171Z,14.60
2018-08-17T18:20:03.439Z,15.80
2018-08-17T18:22:32.852Z,16.17
2018-08-17T18:25:05.786Z,19.10
2018-08-17T18:27:35.739Z,18.10
2018-08-17T18:30:05.391Z,18.10
2018-08-17T18:32:40.543Z,16.57
2018-08-17T18:35:10.251Z,17.40
2018-08-17T18:37:39.817Z,16.13
2018-08-17T18:40:11.215Z,18.37
2018-08-17T18:42:42.470Z,16.57
2018-08-17T18:45:12.067Z,15.98
2018-08-17T18:47:41.198Z,16.40
2018-08-17T18:50:10.261Z,14.00
2018-08-17T18:52:39.461Z,14.75
2018-08-17T18:55:08.683Z,14.33
2018-08-17T18:57:37.962Z,13.60
2018-08-17T19:00:09.359Z,11.93
2018-08-17T19:02:38.385Z,15.83
2018-08-17T19:05:08.007Z,12.80
2018-08-17T19:07:37.077Z,14.68
2018-08-17T19:10:06.830Z,12.70
2018-08-17T19:12:36.327Z,15.00
2018-08-17T19:15:10.184Z,14.03
2018-08-17T19:17:38.833Z,13.77
2018-08-17T19:20:10.985Z,14.30
2018-08-17T19:24:19.442Z,15.47
2018-08-17T19:26:48.280Z,14.30
2018-08-17T19:29:17.430Z,12.17
2018-08-17T19:32:07.222Z,12.20
2018-08-17T19:34:36.711Z,14.57
2018-08-17T19:37:06.101Z,11.30
2018-08-17T19:39:35.112Z,11.90
2018-08-17T19:42:04.479Z,11.53
2018-08-17T19:44:33.720Z,11.60
2018-08-17T19:47:02.831Z,11.33
2018-08-17T19:49:31.724Z,11.63
2018-08-17T19:52:00.783Z,10.83
2018-08-17T19:54:29.862Z,10.60
2018-08-17T19:56:59.551Z,13.00
2018-08-17T19:59:33.394Z,10.27
2018-08-17T20:02:02.283Z,10.73
2018-08-17T20:04:31.503Z,10.90
2018-08-17T20:07:00.550Z,14.63
2018-08-17T20:09:29.453Z,9.90
2018-08-17T20:11:58.390Z,10.90
2018-08-17T20:14:27.372Z,9.87
2018-08-17T20:16:58.182Z,10.57
2018-08-17T20:19:35.129Z,10.73
2018-08-17T20:22:05.516Z,11.37
2018-08-17T20:24:37.023Z,12.57
2018-08-17T20:27:07.431Z,10.83
2018-08-17T20:29:37.734Z,17.87
2018-08-17T20:32:07.283Z,13.90
2018-08-17T20:34:42.472Z,14.80
2018-08-17T20:37:12.236Z,14.57
2018-08-17T20:39:42.401Z,13.20
2018-08-17T20:42:11.930Z,18.40
2018-08-17T20:44:42.285Z,15.50
2018-08-17T20:47:15.776Z,12.70
2018-08-17T20:49:45.341Z,15.30
2018-08-17T20:52:16.984Z,15.33
2018-08-17T20:54:47.023Z,13.13
2018-08-17T20:57:15.884Z,11.90
2018-08-17T20:59:44.947Z,13.40
2018-08-17T21:02:14.034Z,12.60
2018-08-17T21:04:47.053Z,13.10
2018-08-17T21:07:16.403Z,12.90
2018-08-17T21:09:48.182Z,12.18
2018-08-17T21:12:17.656Z,13.27
2018-08-17T21:14:47.476Z,12.90
2018-08-17T21:17:16.762Z,15.50
2018-08-17T21:19:46.292Z,11.20
2018-08-17T21:22:15.667Z,10.90
2018-08-17T21:24:44.749Z,12.30
2018-08-17T21:27:14.094Z,11.80
2018-08-17T21:29:45.199Z,10.37
2018-08-17T21:32:14.488Z,11.07
2018-08-17T21:34:45.286Z,11.20
2018-08-17T21:37:14.239Z,10.43
2018-08-17T21:39:44.221Z,13.07
2018-08-17T21:42:14.358Z,12.33
2018-08-17T21:44:53.580Z,10.97
2018-08-17T21:50:02.592Z,10.85
2018-08-17T21:52:31.449Z,11.00
2018-08-17T21:55:00.483Z,11.90
2018-08-17T21:57:29.377Z,11.37
2018-08-17T21:59:58.483Z,11.03
2018-08-17T22:02:27.402Z,12.70
2018-08-17T22:04:58.879Z,14.57
2018-08-17T22:07:28.601Z,12.90
2018-08-17T22:09:57.664Z,11.27
2018-08-17T22:12:26.978Z,10.53
2018-08-17T22:14:56.126Z,11.57
2018-08-17T22:17:34.520Z,11.97
2018-08-17T22:20:04.866Z,12.77
2018-08-17T22:22:34.911Z,14.70
2018-08-17T22:25:05.383Z,12.50
2018-08-17T22:27:34.886Z,12.00
2018-08-17T22:30:05.735Z,16.47
2018-08-17T22:32:36.294Z,11.83
2018-08-17T22:35:05.675Z,12.97
2018-08-17T22:37:35.104Z,12.23
2018-08-17T22:40:21.806Z,11.00
2018-08-17T22:42:51.279Z,11.60
2018-08-17T22:45:20.513Z,10.60
2018-08-17T22:47:49.128Z,11.10
2018-08-17T22:50:18.052Z,14.13
2018-08-17T22:52:48.177Z,11.83
2018-08-17T22:55:16.926Z,12.00
2018-08-17T22:57:45.940Z,11.73
2018-08-17T23:00:24.921Z,12.50
2018-08-17T23:02:59.014Z,11.20
2018-08-17T23:05:32.426Z,10.77
2018-08-17T23:08:02.092Z,11.40
2018-08-17T23:10:33.405Z,14.47
2018-08-17T23:13:03.431Z,11.97
2018-08-17T23:15:36.888Z,10.80
2018-08-17T23:18:11.492Z,13.83
2018-08-17T23:20:41.816Z,12.50
2018-08-17T23:23:15.515Z,12.50
2018-08-17T23:25:45.841Z,14.80
2018-08-17T23:28:15.591Z,13.87
2018-08-17T23:30:45.167Z,13.97
2018-08-17T23:33:17.785Z,16.15
2018-08-17T23:35:48.626Z,15.20
2018-08-17T23:38:19.017Z,14.93
2018-08-17T23:40:49.033Z,14.53
2018-08-17T23:43:18.335Z,18.10
2018-08-17T23:45:47.417Z,14.37
2018-08-17T23:48:16.378Z,14.37
2018-08-17T23:50:45.504Z,17.27
2018-08-17T23:53:14.662Z,16.00
2018-08-17T23:55:45.481Z,16.70
2018-08-17T23:58:23.214Z,15.90
